Aviation Digital Data Service (ADDS)

Output produced by METARs form (1155 UTC 11 December 2016)
found at http://aviationweather.gov/adds/metars/
 
KJFK 111148Z 1112/1218 29006KT P6SM SCT120 BKN150 
     FM111400 26006KT P6SM OVC100 
     FM111600 21009KT P6SM OVC060 
     FM112000 19010KT 5SM -SN OVC040 
     FM120100 20009KT P6SM VCSH SCT045 OVC080 
     FM120500 18009KT 6SM -RA OVC035 
     FM120700 18009KT 5SM -RA OVC015 
     FM120900 20009KT 2SM RA BR OVC008 
     FM121200 21014G28KT 2SM RA BR OVC008 
     FM121500 24017G32KT 2SM RA BR OVC015